createdAt,value
2019-05-22T00:02:35.300Z,12.40
2019-05-22T00:05:08.235Z,12.30
2019-05-22T00:07:36.792Z,12.30
2019-05-22T00:10:08.375Z,12.30
2019-05-22T00:12:46.659Z,12.40
2019-05-22T00:15:11.053Z,12.40
2019-05-22T00:17:40.906Z,12.30
2019-05-22T00:20:11.533Z,12.30
2019-05-22T00:22:42.004Z,12.30
2019-05-22T00:25:15.117Z,12.30
2019-05-22T00:27:49.754Z,12.30
2019-05-22T00:30:20.538Z,12.30
2019-05-22T00:32:49.207Z,12.40
2019-05-22T00:35:21.370Z,12.30
2019-05-22T00:37:51.712Z,12.40
2019-05-22T00:40:22.130Z,12.40
2019-05-22T00:43:03.259Z,12.30
2019-05-22T00:45:24.693Z,12.40
2019-05-22T00:47:54.716Z,12.30
2019-05-22T00:50:29.607Z,12.30
2019-05-22T00:53:02.482Z,12.40
2019-05-22T00:55:43.959Z,12.40
2019-05-22T00:58:29.720Z,12.40
2019-05-22T01:01:02.120Z,12.40
2019-05-22T01:03:32.054Z,12.40
2019-05-22T01:06:01.469Z,12.40
2019-05-22T01:08:31.396Z,12.40
2019-05-22T01:11:01.143Z,12.40
2019-05-22T01:13:30.817Z,12.40
2019-05-22T01:16:00.139Z,12.40
2019-05-22T01:18:30.116Z,12.40
2019-05-22T01:21:00.770Z,12.40
2019-05-22T01:23:30.980Z,12.40
2019-05-22T01:26:01.184Z,12.50
2019-05-22T01:28:30.187Z,12.40
2019-05-22T01:31:01.013Z,12.40
2019-05-22T01:33:38.323Z,12.40
2019-05-22T01:36:08.914Z,12.40
2019-05-22T01:38:40.170Z,12.40
2019-05-22T01:41:17.350Z,12.50
2019-05-22T01:43:46.315Z,12.40
2019-05-22T01:46:16.676Z,12.40
2019-05-22T01:48:45.483Z,12.40
2019-05-22T01:51:35.078Z,12.40
2019-05-22T01:54:04.373Z,12.30
2019-05-22T01:56:34.542Z,12.30
2019-05-22T01:59:04.626Z,12.30
2019-05-22T02:01:33.406Z,12.30
2019-05-22T02:04:02.216Z,12.40
2019-05-22T02:06:30.872Z,12.40
2019-05-22T02:09:27.256Z,12.30
2019-05-22T02:12:06.294Z,12.30
2019-05-22T02:14:35.168Z,12.30
2019-05-22T02:17:05.684Z,12.40
2019-05-22T02:19:35.226Z,12.40
2019-05-22T02:22:06.135Z,12.30
2019-05-22T02:24:36.326Z,12.30
2019-05-22T02:27:06.102Z,12.40
2019-05-22T02:29:36.131Z,12.30
2019-05-22T02:32:07.077Z,12.40
2019-05-22T02:34:35.754Z,12.40
2019-05-22T02:37:06.227Z,12.40
2019-05-22T02:39:36.042Z,12.30
2019-05-22T02:42:12.095Z,12.40
2019-05-22T02:44:41.815Z,12.40
2019-05-22T02:47:20.085Z,12.30
2019-05-22T02:49:45.287Z,12.30
2019-05-22T02:52:16.634Z,12.40
2019-05-22T02:54:47.268Z,12.40
2019-05-22T02:57:16.949Z,12.30
2019-05-22T02:59:46.182Z,12.30
2019-05-22T03:02:16.339Z,12.30
2019-05-22T03:05:10.215Z,12.30
2019-05-22T03:07:40.304Z,12.30
2019-05-22T03:10:12.723Z,12.30
2019-05-22T03:12:42.612Z,12.30
2019-05-22T03:15:14.064Z,12.30
2019-05-22T03:17:44.945Z,12.30
2019-05-22T03:20:18.225Z,12.20
2019-05-22T03:23:11.282Z,12.30
2019-05-22T03:25:41.491Z,12.30
2019-05-22T03:28:11.112Z,12.20
2019-05-22T03:30:41.942Z,12.20
2019-05-22T03:33:10.634Z,12.20
2019-05-22T03:35:45.938Z,12.20
2019-05-22T03:38:16.213Z,12.30
2019-05-22T03:40:45.755Z,12.20
2019-05-22T03:43:23.815Z,12.20
2019-05-22T03:45:55.039Z,12.20
2019-05-22T03:48:25.165Z,12.20
2019-05-22T03:51:12.610Z,12.20
2019-05-22T03:53:42.271Z,12.30
2019-05-22T03:56:11.889Z,12.20
2019-05-22T03:58:41.275Z,12.30
2019-05-22T04:01:11.767Z,12.30
2019-05-22T04:03:40.317Z,12.30
2019-05-22T04:06:10.119Z,12.30
2019-05-22T04:08:39.534Z,12.30
2019-05-22T04:11:11.556Z,12.30
2019-05-22T04:13:40.672Z,12.30
2019-05-22T04:16:11.931Z,12.30
2019-05-22T04:18:41.231Z,12.40
2019-05-22T04:21:10.158Z,12.30
2019-05-22T04:23:39.414Z,12.30
2019-05-22T04:26:09.474Z,12.30
2019-05-22T04:28:47.685Z,12.30
2019-05-22T04:31:17.009Z,12.20
2019-05-22T04:33:45.596Z,12.20
2019-05-22T04:36:15.179Z,12.20
2019-05-22T04:38:43.993Z,12.20
2019-05-22T04:41:13.862Z,12.20
2019-05-22T04:43:42.897Z,12.20
2019-05-22T04:46:13.379Z,12.30
2019-05-22T04:48:45.870Z,12.40
2019-05-22T04:51:24.121Z,12.40
2019-05-22T04:53:53.979Z,12.50
2019-05-22T04:56:23.797Z,12.50
2019-05-22T04:58:53.215Z,12.60
2019-05-22T05:01:22.292Z,12.60
2019-05-22T05:03:51.053Z,12.60
2019-05-22T05:06:20.868Z,12.60
2019-05-22T05:08:50.597Z,12.60
2019-05-22T05:11:20.556Z,12.60
2019-05-22T05:13:49.321Z,12.70
2019-05-22T05:16:18.474Z,12.70
2019-05-22T05:18:47.351Z,12.70
2019-05-22T05:21:16.617Z,12.70
2019-05-22T05:23:45.212Z,12.80
2019-05-22T05:26:14.368Z,12.80
2019-05-22T05:28:43.540Z,12.90
2019-05-22T05:31:13.543Z,12.90
2019-05-22T05:34:05.518Z,12.90
2019-05-22T05:36:35.428Z,13.00
2019-05-22T05:39:07.170Z,13.00
2019-05-22T05:41:36.294Z,13.10
2019-05-22T05:44:05.631Z,13.10
2019-05-22T05:46:34.350Z,13.10
2019-05-22T05:49:05.564Z,13.20
2019-05-22T05:51:37.260Z,13.20
2019-05-22T05:54:09.583Z,13.20
2019-05-22T05:56:41.371Z,13.30
2019-05-22T05:59:09.822Z,13.30
2019-05-22T06:01:40.774Z,13.40
2019-05-22T06:04:11.843Z,13.40
2019-05-22T06:06:43.526Z,13.40
2019-05-22T06:09:16.973Z,13.50
2019-05-22T06:11:48.585Z,13.50
2019-05-22T06:14:19.967Z,13.50
2019-05-22T06:16:53.528Z,13.60
2019-05-22T06:19:23.835Z,13.60
2019-05-22T06:21:53.511Z,13.70
2019-05-22T06:24:25.652Z,13.70
2019-05-22T06:27:00.165Z,13.80
2019-05-22T06:29:33.236Z,13.80
2019-05-22T06:32:06.311Z,13.90
2019-05-22T06:34:37.277Z,14.00
2019-05-22T06:37:15.013Z,14.10
2019-05-22T06:39:45.503Z,14.20
2019-05-22T06:42:15.312Z,14.20
2019-05-22T06:44:44.444Z,14.40
2019-05-22T06:47:15.499Z,14.40
2019-05-22T06:49:45.646Z,14.50
2019-05-22T06:52:15.569Z,14.60
2019-05-22T06:54:44.760Z,14.70
2019-05-22T06:57:18.324Z,14.80
2019-05-22T06:59:49.248Z,14.80
2019-05-22T07:02:19.442Z,14.80
2019-05-22T07:04:48.633Z,14.80
2019-05-22T07:07:18.348Z,14.80
2019-05-22T07:09:47.494Z,14.80
2019-05-22T07:12:19.891Z,14.90
2019-05-22T07:15:00.931Z,14.90
2019-05-22T07:17:30.093Z,14.90
2019-05-22T07:19:59.724Z,14.90
2019-05-22T07:22:29.337Z,14.90
2019-05-22T07:24:58.024Z,14.90
2019-05-22T07:27:26.958Z,14.90
2019-05-22T07:29:56.387Z,14.90
2019-05-22T07:32:25.184Z,14.90
2019-05-22T07:34:54.123Z,15.00
2019-05-22T07:37:24.030Z,15.10
2019-05-22T07:39:53.601Z,15.10
2019-05-22T07:42:22.649Z,15.20
2019-05-22T07:44:51.521Z,15.20
2019-05-22T07:47:23.164Z,15.30
2019-05-22T07:49:51.914Z,15.40
2019-05-22T07:52:21.743Z,15.50
2019-05-22T07:54:53.476Z,15.70
2019-05-22T07:57:22.869Z,15.80
2019-05-22T07:59:52.418Z,16.00
2019-05-22T08:02:24.817Z,16.00
2019-05-22T08:04:53.885Z,16.00
2019-05-22T08:07:24.543Z,16.00
2019-05-22T08:09:54.708Z,16.00
2019-05-22T08:12:24.634Z,16.00
2019-05-22T08:14:53.950Z,16.10
2019-05-22T08:17:22.796Z,16.20
2019-05-22T08:19:51.658Z,16.30
2019-05-22T08:22:21.096Z,16.40
2019-05-22T08:24:50.345Z,16.50
2019-05-22T08:27:21.044Z,16.50
2019-05-22T08:29:50.347Z,16.50
2019-05-22T08:32:20.493Z,16.60
2019-05-22T08:34:49.041Z,16.60
2019-05-22T08:37:20.484Z,16.70
2019-05-22T08:39:49.696Z,16.80
2019-05-22T08:42:19.494Z,16.80
2019-05-22T08:44:48.813Z,16.80
2019-05-22T08:47:18.778Z,16.70
2019-05-22T08:49:47.977Z,16.70
2019-05-22T08:52:23.753Z,16.70
2019-05-22T08:54:49.418Z,16.70
2019-05-22T08:57:23.311Z,16.60
2019-05-22T08:59:51.868Z,16.60
2019-05-22T09:02:21.235Z,16.70
2019-05-22T09:04:50.323Z,16.90
2019-05-22T09:07:20.023Z,17.10
2019-05-22T09:09:48.913Z,17.10
2019-05-22T09:12:19.630Z,17.20
2019-05-22T09:14:48.166Z,17.30
2019-05-22T09:17:17.691Z,17.50
2019-05-22T09:19:46.711Z,17.60
2019-05-22T09:22:15.676Z,17.70
2019-05-22T09:24:46.597Z,17.80
2019-05-22T09:27:16.013Z,17.90
2019-05-22T09:29:48.205Z,18.00
2019-05-22T09:32:17.344Z,17.90
2019-05-22T09:34:47.720Z,17.80
2019-05-22T09:37:16.624Z,17.80
2019-05-22T09:39:45.205Z,17.80
2019-05-22T09:42:14.956Z,17.70
2019-05-22T09:44:43.662Z,17.70
2019-05-22T09:47:12.640Z,17.70
2019-05-22T09:49:41.255Z,17.60
2019-05-22T09:52:10.797Z,17.60
2019-05-22T09:54:39.452Z,17.70
2019-05-22T09:57:09.085Z,17.90
2019-05-22T09:59:37.599Z,18.10
2019-05-22T10:02:08.095Z,18.30
2019-05-22T10:04:38.401Z,18.40
2019-05-22T10:07:07.023Z,18.50
2019-05-22T10:09:36.244Z,18.60
2019-05-22T10:12:05.877Z,18.60
2019-05-22T10:14:35.326Z,18.60
2019-05-22T10:17:04.710Z,18.60
2019-05-22T10:19:34.060Z,18.70
2019-05-22T10:22:03.465Z,18.80
2019-05-22T10:24:32.000Z,18.90
2019-05-22T10:27:00.920Z,19.00
2019-05-22T10:29:32.363Z,18.90
2019-05-22T10:32:00.619Z,18.70
2019-05-22T10:34:29.404Z,18.80
2019-05-22T10:36:59.060Z,18.80
2019-05-22T10:39:27.977Z,18.90
2019-05-22T10:41:57.055Z,19.00
2019-05-22T10:44:25.831Z,19.10
2019-05-22T10:46:54.643Z,19.20
2019-05-22T10:49:23.676Z,19.30
2019-05-22T10:51:52.543Z,19.30
2019-05-22T10:54:21.451Z,19.20
2019-05-22T10:56:50.171Z,19.20
2019-05-22T10:59:18.633Z,19.10
2019-05-22T11:01:48.635Z,18.90
2019-05-22T11:04:19.778Z,18.80
2019-05-22T11:06:49.171Z,18.80
2019-05-22T11:09:19.285Z,18.70
2019-05-22T11:11:48.145Z,18.70
2019-05-22T11:14:16.697Z,18.70
2019-05-22T11:16:46.136Z,18.80
2019-05-22T11:19:15.727Z,18.90
2019-05-22T11:21:45.837Z,19.00
2019-05-22T11:24:14.996Z,19.10
2019-05-22T11:26:44.496Z,19.10
2019-05-22T11:29:14.032Z,19.20
2019-05-22T11:31:44.352Z,19.30
2019-05-22T11:34:13.163Z,19.40
2019-05-22T11:36:42.025Z,19.50
2019-05-22T11:39:13.990Z,19.70
2019-05-22T11:41:43.829Z,19.70
2019-05-22T11:44:12.754Z,19.70
2019-05-22T11:46:41.764Z,19.70
2019-05-22T11:49:11.194Z,19.90
2019-05-22T11:51:41.357Z,19.90
2019-05-22T11:54:10.332Z,19.70
2019-05-22T11:56:38.897Z,19.60
2019-05-22T11:59:08.143Z,19.50
2019-05-22T12:01:37.291Z,19.30
2019-05-22T12:04:07.919Z,19.20
2019-05-22T12:06:37.612Z,19.10
2019-05-22T12:09:09.189Z,18.90
2019-05-22T12:11:37.377Z,18.90
2019-05-22T12:14:07.899Z,18.80
2019-05-22T12:16:38.601Z,18.80
2019-05-22T12:19:07.949Z,18.80
2019-05-22T12:21:36.890Z,18.80
2019-05-22T12:24:05.891Z,18.80
2019-05-22T12:26:34.950Z,18.80
2019-05-22T12:29:03.718Z,18.80
2019-05-22T12:31:33.032Z,18.80
2019-05-22T12:34:01.704Z,18.90
2019-05-22T12:36:31.390Z,19.10
2019-05-22T12:39:01.205Z,19.10
2019-05-22T12:41:30.695Z,19.10
2019-05-22T12:43:59.577Z,19.10
2019-05-22T12:46:29.253Z,19.10
2019-05-22T12:48:58.755Z,19.10
2019-05-22T12:51:27.951Z,19.10
2019-05-22T12:53:56.649Z,19.20
2019-05-22T12:56:25.117Z,19.20
2019-05-22T12:58:55.080Z,19.30
2019-05-22T13:01:25.219Z,19.40
2019-05-22T13:03:55.912Z,19.50
2019-05-22T13:06:25.235Z,19.60
2019-05-22T13:08:54.673Z,19.60
2019-05-22T13:11:25.073Z,19.70
2019-05-22T13:13:53.945Z,19.60
2019-05-22T13:16:22.986Z,19.60
2019-05-22T13:18:53.673Z,19.70
2019-05-22T13:21:26.051Z,19.70
2019-05-22T13:23:54.803Z,19.80
2019-05-22T13:26:25.397Z,19.90
2019-05-22T13:28:55.570Z,19.90
2019-05-22T13:31:24.655Z,19.90
2019-05-22T13:33:53.484Z,19.90
2019-05-22T13:36:22.678Z,19.80
2019-05-22T13:38:51.803Z,19.80
2019-05-22T13:41:21.330Z,19.80
2019-05-22T13:43:50.722Z,19.80
2019-05-22T13:46:19.879Z,19.90
2019-05-22T13:48:48.729Z,20.00
2019-05-22T13:51:17.887Z,19.90
2019-05-22T13:53:47.284Z,19.90
2019-05-22T13:56:17.422Z,19.80
2019-05-22T13:58:46.901Z,19.80
2019-05-22T14:01:15.799Z,19.80
2019-05-22T14:03:44.897Z,19.80
2019-05-22T14:06:14.141Z,19.90
2019-05-22T14:08:42.831Z,19.90
2019-05-22T14:14:12.290Z,20.00
2019-05-22T14:16:48.865Z,20.00
2019-05-22T14:19:12.353Z,20.00
2019-05-22T14:21:41.221Z,20.10
2019-05-22T14:24:10.343Z,20.20
2019-05-22T14:26:39.113Z,20.30
2019-05-22T14:29:08.140Z,20.40
2019-05-22T14:31:37.395Z,20.40
2019-05-22T14:34:06.378Z,20.40
2019-05-22T14:36:36.023Z,20.40
2019-05-22T14:39:06.898Z,20.40
2019-05-22T14:41:35.897Z,20.50
2019-05-22T14:44:04.917Z,20.60
2019-05-22T14:46:34.009Z,20.60
2019-05-22T14:49:03.551Z,20.60
2019-05-22T14:51:32.208Z,20.50
2019-05-22T14:54:01.695Z,20.50
2019-05-22T14:56:31.389Z,20.40
2019-05-22T14:59:00.782Z,20.40
2019-05-22T15:01:30.121Z,20.30
2019-05-22T15:03:58.736Z,20.20
2019-05-22T15:06:27.863Z,20.10
2019-05-22T15:08:56.720Z,20.00
2019-05-22T15:11:25.660Z,20.00
2019-05-22T15:13:54.377Z,20.00
2019-05-22T15:16:24.748Z,20.00
2019-05-22T15:18:53.583Z,19.90
2019-05-22T15:21:23.546Z,19.70
2019-05-22T15:23:52.885Z,19.70
2019-05-22T15:26:21.490Z,19.50
2019-05-22T15:28:50.368Z,19.50
2019-05-22T15:31:19.533Z,19.40
2019-05-22T15:33:48.131Z,19.40
2019-05-22T15:36:18.902Z,19.50
2019-05-22T15:38:50.459Z,19.60
2019-05-22T15:41:19.283Z,19.60
2019-05-22T15:43:52.845Z,19.60
2019-05-22T15:46:21.223Z,19.70
2019-05-22T15:48:51.488Z,19.70
2019-05-22T15:51:23.023Z,19.70
2019-05-22T15:53:52.821Z,19.70
2019-05-22T15:56:21.918Z,19.80
2019-05-22T15:58:53.959Z,19.80
2019-05-22T16:01:25.154Z,19.70
2019-05-22T16:03:54.961Z,19.80
2019-05-22T16:06:27.273Z,19.70
2019-05-22T16:08:57.144Z,19.70
2019-05-22T16:11:27.679Z,19.60
2019-05-22T16:14:01.911Z,19.60
2019-05-22T16:16:32.356Z,19.70
2019-05-22T16:19:04.355Z,19.80
2019-05-22T16:21:36.598Z,19.80
2019-05-22T16:24:06.282Z,19.80
2019-05-22T16:26:35.830Z,19.80
2019-05-22T16:29:04.997Z,19.90
2019-05-22T16:31:34.964Z,20.00
2019-05-22T16:34:04.282Z,20.10
2019-05-22T16:36:33.259Z,20.10
2019-05-22T16:39:03.957Z,20.10
2019-05-22T16:41:33.129Z,20.20
2019-05-22T16:44:02.214Z,20.30
2019-05-22T16:46:31.137Z,20.20
2019-05-22T16:49:00.206Z,20.10
2019-05-22T16:51:31.587Z,20.10
2019-05-22T16:54:06.229Z,20.10
2019-05-22T16:56:36.100Z,20.00
2019-05-22T16:59:06.593Z,19.90
2019-05-22T17:01:56.148Z,19.90
2019-05-22T17:04:07.616Z,19.90
2019-05-22T17:06:37.355Z,19.90
2019-05-22T17:09:09.576Z,20.00
2019-05-22T17:11:38.520Z,20.00
2019-05-22T17:14:08.965Z,20.00
2019-05-22T17:16:39.586Z,20.00
2019-05-22T17:19:25.585Z,20.00
2019-05-22T17:21:40.642Z,20.00
2019-05-22T17:24:12.790Z,20.00
2019-05-22T17:26:41.922Z,20.00
2019-05-22T17:29:11.736Z,20.10
2019-05-22T17:31:41.333Z,20.20
2019-05-22T17:34:28.148Z,20.20
2019-05-22T17:36:57.564Z,20.20
2019-05-22T17:39:27.882Z,20.20
2019-05-22T17:41:57.585Z,20.20
2019-05-22T17:44:28.788Z,20.20
2019-05-22T17:46:58.875Z,20.30
2019-05-22T17:49:28.100Z,20.20
2019-05-22T17:51:57.573Z,20.10
2019-05-22T17:54:26.286Z,20.10
2019-05-22T17:56:55.859Z,20.00
2019-05-22T17:59:24.897Z,19.90
2019-05-22T18:01:54.992Z,19.80
2019-05-22T18:04:24.024Z,19.80
2019-05-22T18:06:53.915Z,19.80
2019-05-22T18:09:22.962Z,19.80
2019-05-22T18:11:51.772Z,20.00
2019-05-22T18:14:21.552Z,20.10
2019-05-22T18:16:50.103Z,20.40
2019-05-22T18:19:18.809Z,20.70
2019-05-22T18:21:48.376Z,21.00
2019-05-22T18:24:17.516Z,21.20
2019-05-22T18:26:46.121Z,21.40
2019-05-22T18:29:15.172Z,21.70
2019-05-22T18:31:44.264Z,22.00
2019-05-22T18:34:12.810Z,22.30
2019-05-22T18:36:41.450Z,22.50
2019-05-22T18:39:11.621Z,22.70
2019-05-22T18:41:40.490Z,22.80
2019-05-22T18:44:09.507Z,22.90
2019-05-22T18:46:38.326Z,22.90
2019-05-22T18:49:06.867Z,22.90
2019-05-22T18:51:35.931Z,22.90
2019-05-22T18:54:04.965Z,22.70
2019-05-22T18:56:33.711Z,22.40
2019-05-22T18:59:02.510Z,22.20
2019-05-22T19:01:31.187Z,21.80
2019-05-22T19:03:59.884Z,21.40
2019-05-22T19:06:30.677Z,21.10
2019-05-22T19:08:59.078Z,20.70
2019-05-22T19:11:28.204Z,20.40
2019-05-22T19:13:57.166Z,20.20
2019-05-22T19:16:26.025Z,19.90
2019-05-22T19:18:54.674Z,19.70
2019-05-22T19:21:23.990Z,19.50
2019-05-22T19:23:52.779Z,19.30
2019-05-22T19:26:22.224Z,19.10
2019-05-22T19:28:51.591Z,19.00
2019-05-22T19:31:20.458Z,18.80
2019-05-22T19:33:49.137Z,18.70
2019-05-22T19:36:17.885Z,18.50
2019-05-22T19:38:46.481Z,18.40
2019-05-22T19:41:15.377Z,18.30
2019-05-22T19:43:44.223Z,18.20
2019-05-22T19:46:12.844Z,18.10
2019-05-22T19:48:42.290Z,18.00
2019-05-22T19:51:18.026Z,17.90
2019-05-22T19:53:47.924Z,17.80
2019-05-22T19:56:17.868Z,17.60
2019-05-22T19:58:46.921Z,17.50
2019-05-22T20:01:16.192Z,17.40
2019-05-22T20:03:44.865Z,17.30
2019-05-22T20:06:14.111Z,17.20
2019-05-22T20:08:43.530Z,17.20
2019-05-22T20:11:12.500Z,17.00
2019-05-22T20:13:42.477Z,17.00
2019-05-22T20:16:12.033Z,16.80
2019-05-22T20:18:40.917Z,16.70
2019-05-22T20:21:10.446Z,16.70
2019-05-22T20:23:38.975Z,16.60
2019-05-22T20:26:08.091Z,16.50
2019-05-22T20:28:38.224Z,16.40
2019-05-22T20:31:07.700Z,16.40
2019-05-22T20:33:36.245Z,16.30
2019-05-22T20:36:06.462Z,16.20
2019-05-22T20:38:35.830Z,16.10
2019-05-22T20:41:04.659Z,16.10
2019-05-22T20:43:33.708Z,16.00
2019-05-22T20:46:03.974Z,15.90
2019-05-22T20:48:33.279Z,15.80
2019-05-22T20:51:04.166Z,15.90
2019-05-22T20:53:52.377Z,15.80
2019-05-22T20:56:08.039Z,15.70
2019-05-22T20:58:36.919Z,15.70
2019-05-22T21:01:07.579Z,15.60
2019-05-22T21:03:36.868Z,15.50
2019-05-22T21:06:08.777Z,15.50
2019-05-22T21:08:38.137Z,15.40
2019-05-22T21:11:08.655Z,15.40
2019-05-22T21:13:38.036Z,15.40
2019-05-22T21:16:07.637Z,15.30
2019-05-22T21:18:45.147Z,15.30
2019-05-22T21:21:14.783Z,15.20
2019-05-22T21:23:43.999Z,15.20
2019-05-22T21:26:13.260Z,15.20
2019-05-22T21:28:42.327Z,15.10
2019-05-22T21:31:13.057Z,15.10
2019-05-22T21:33:41.880Z,15.10
2019-05-22T21:36:13.332Z,15.10
2019-05-22T21:38:42.588Z,15.00
2019-05-22T21:41:13.393Z,15.00
2019-05-22T21:43:42.508Z,15.00
2019-05-22T21:46:11.436Z,15.00
2019-05-22T21:48:40.210Z,14.90
2019-05-22T21:51:09.833Z,14.90
2019-05-22T21:53:38.449Z,14.90
2019-05-22T21:56:07.410Z,14.90
2019-05-22T21:58:37.235Z,14.80
2019-05-22T22:01:11.318Z,14.80
2019-05-22T22:03:44.245Z,14.80
2019-05-22T22:06:15.251Z,14.70
2019-05-22T22:08:44.357Z,14.70
2019-05-22T22:11:14.226Z,14.70
2019-05-22T22:13:43.567Z,14.60
2019-05-22T22:16:12.881Z,14.60
2019-05-22T22:18:41.861Z,14.60
2019-05-22T22:21:12.728Z,14.60
2019-05-22T22:23:44.714Z,14.50
2019-05-22T22:26:25.591Z,14.50
2019-05-22T22:28:44.858Z,14.50
2019-05-22T22:31:15.959Z,14.40
2019-05-22T22:33:47.516Z,14.40
2019-05-22T22:36:17.293Z,14.30
2019-05-22T22:38:46.326Z,14.30
2019-05-22T22:41:15.589Z,14.20
2019-05-22T22:43:46.574Z,14.10
2019-05-22T22:46:31.612Z,14.00
2019-05-22T22:49:02.079Z,14.00
2019-05-22T22:51:31.543Z,13.90
2019-05-22T22:54:00.969Z,13.90
2019-05-22T22:56:29.675Z,13.80
2019-05-22T22:58:59.452Z,13.70
2019-05-22T23:01:32.698Z,13.80
2019-05-22T23:04:05.559Z,13.80
2019-05-22T23:06:36.266Z,13.70
2019-05-22T23:09:07.152Z,13.80
2019-05-22T23:11:38.739Z,13.70
2019-05-22T23:14:08.066Z,13.70
2019-05-22T23:16:37.348Z,13.70
2019-05-22T23:19:15.838Z,13.70
2019-05-22T23:21:50.373Z,13.70
2019-05-22T23:24:19.793Z,13.70
2019-05-22T23:26:49.866Z,13.70
2019-05-22T23:29:18.629Z,13.70
2019-05-22T23:31:48.643Z,13.60
2019-05-22T23:34:17.252Z,13.60
2019-05-22T23:36:46.332Z,13.60
2019-05-22T23:39:17.799Z,13.60
2019-05-22T23:41:47.403Z,13.60
2019-05-22T23:44:22.472Z,13.60
2019-05-22T23:46:51.241Z,13.60
2019-05-22T23:49:20.301Z,13.50
2019-05-22T23:51:49.109Z,13.50
2019-05-22T23:54:18.579Z,13.40
2019-05-22T23:56:49.718Z,13.40
2019-05-22T23:59:18.409Z,13.30
